Williamstown, WV

5:24 PM EST on February 13, 2016 (GMT -0500)
Wood County Wilson | | Change Station
CLOSE
Current Station
Airport
Location: Parkersburg,
Elevation: 860 ft
Nearby Weather Stations

Elev 860 ft 39.35 °N, 81.44 °W | Updated 31 minutes ago

Scattered Clouds
Scattered Clouds
16 °F
Feels Like 2 °F
N
13
Wind Variable Wind from WNW
Gusts 20 mph

Today
High -- | Low -- °F
--% Chance of Precip.
Yesterday
High -- | Low -- °F
Precip. -- in
Pressure 30.53 in
Visibility 10.0 miles
Clouds Scattered Clouds 5000 ft
Windchill 2 °F
Dew Point -4 °F
Humidity 41%
Rainfall 0.00 in
Snow Depth Not available.
7:20 AM 5:59 PM
Waxing Crescent, 34% visible
METAR KPKB 132153Z 29011G17KT 10SM SCT050 M09/M20 A3048 RMK AO2 SLP338 T10891200
Pressure 30.53 in
Visibility 10.0 miles
Clouds Scattered Clouds 5000 ft
Windchill 2 °F
Dew Point -4 °F
Humidity 41%
Rainfall 0.00 in
Snow Depth Not available.
7:20 AM 5:59 PM
Waxing Crescent, 34% visible
METAR KPKB 132153Z 29011G17KT 10SM SCT050 M09/M20 A3048 RMK AO2 SLP338 T10891200

10-Day Weather Forecast

Almanac

Astronomy

Feb. 13, 2016 Rise Set
Actual Time
Civil Twilight
Nautical Twilight
Astronomical Twilight
Moon
Length of Visible Light
Length of Day
Tomorrow will be .
, % of the Moon is Illuminated

Today's Extremes

State Highs State Lows

Community

WunderPhotos

Upload Photos

1,892,688 photos uploaded!

WunderBlog® & News

Nearby

Air Quality

  Air Quality AQ Index Pollutant
Not available.

Snow Depth

Station Depth Elevation

Earthquake Activity

City Distance Mag. Time & Date
Minimum magnitude displayed is 2.5.

Coastal Water Temperatures

Place Temperature

Stations

Nearby Weather Stations

Station Location Temp. Windchill Dew Point Humidity Wind Precip. Elev Updated Type
                   

Watches & Warnings

There are currently no watches in effect.